aviador You're here:

YPWR Decoded Metar

WOOMERA in AUSTRALIA
Report Time2018-06-18 18:30:00
UTC Time2018-06-18 19:14:08
Flight Rules vfr VFR
Wind070° at 05 kt
W.Decomp.*RWY 12: 2.9 kt HW 4.1 kt LCW
RWY 36: 2.1 kt HW 4.5 kt RCW
W.Rank070° ranks 27
Current wind is below 070° avg. (8.0)
Visibility9999 m
Phenomena:N/A
Clouds:N/A
Expected CloudBase > 1,200 ft AGL from Temp-Dew spread
CeilingNone
Temp03°C (ISA -11)
Dew Point00°C (81% RH)
AAT-0.8°C
QNH1027 hPa
Density Alt-1,165 ft
Elevation548 ft
Report Wrong Elevation
Raw Report
METAR YPWR 181830Z AUTO 07005KT 9999 // NCD 03/00 Q1027
RF00.0/000.0=

Extra information for YPWR:More info

Metar Taf Metar & Taf Last 4 Metars F.Rules Stats Wind Profile Meteogram Temp Stats Airport Information Weather charts Add Link Nearby VenuesMetar ALERT Operation Metar Decoded Social comments